sensor_id;sensor_type;location;lat;lon;timestamp;temperature;humidity
55693;DHT22;41590;53.366;5.212;2022-12-18T00:01:33;-0.70;99.90
55693;DHT22;41590;53.366;5.212;2022-12-18T00:04:05;0.50;99.90
55693;DHT22;41590;53.366;5.212;2022-12-18T00:06:35;-0.70;99.90
55693;DHT22;41590;53.366;5.212;2022-12-18T00:09:05;-0.90;99.90
55693;DHT22;41590;53.366;5.212;2022-12-18T00:11:31;-0.70;99.90
55693;DHT22;41590;53.366;5.212;2022-12-18T00:14:02;-0.10;99.90
55693;DHT22;41590;53.366;5.212;2022-12-18T00:16:29;-1.00;99.90
55693;DHT22;41590;53.366;5.212;2022-12-18T00:18:57;-0.90;99.90
55693;DHT22;41590;53.366;5.212;2022-12-18T00:21:27;-0.80;99.90
55693;DHT22;41590;53.366;5.212;2022-12-18T00:23:59;0.10;99.90
55693;DHT22;41590;53.366;5.212;2022-12-18T00:26:33;-0.80;99.90
55693;DHT22;41590;53.366;5.212;2022-12-18T00:29:05;-0.80;99.90
55693;DHT22;41590;53.366;5.212;2022-12-18T00:31:31;-0.90;99.90
55693;DHT22;41590;53.366;5.212;2022-12-18T00:33:58;-0.80;99.90
55693;DHT22;41590;53.366;5.212;2022-12-18T00:36:30;-1.00;99.90
55693;DHT22;41590;53.366;5.212;2022-12-18T00:39:03;-1.10;99.90
55693;DHT22;41590;53.366;5.212;2022-12-18T00:41:30;-0.90;99.90
55693;DHT22;41590;53.366;5.212;2022-12-18T00:44:16;-1.00;99.90
55693;DHT22;41590;53.366;5.212;2022-12-18T00:46:47;-0.40;99.90
55693;DHT22;41590;53.366;5.212;2022-12-18T00:49:14;-1.00;99.90
55693;DHT22;41590;53.366;5.212;2022-12-18T00:51:41;-1.10;99.90
55693;DHT22;41590;53.366;5.212;2022-12-18T00:54:07;-1.00;99.90
55693;DHT22;41590;53.366;5.212;2022-12-18T00:56:36;-0.10;99.90
55693;DHT22;41590;53.366;5.212;2022-12-18T00:59:04;0.30;99.90
55693;DHT22;41590;53.366;5.212;2022-12-18T01:01:35;-1.00;99.90
55693;DHT22;41590;53.366;5.212;2022-12-18T01:04:14;-0.90;99.90
55693;DHT22;41590;53.366;5.212;2022-12-18T01:06:48;-1.00;99.90
55693;DHT22;41590;53.366;5.212;2022-12-18T01:09:15;-0.30;99.90
55693;DHT22;41590;53.366;5.212;2022-12-18T01:11:51;-1.30;99.90
55693;DHT22;41590;53.366;5.212;2022-12-18T01:14:17;-1.40;99.90
55693;DHT22;41590;53.366;5.212;2022-12-18T01:16:44;-1.20;99.90
55693;DHT22;41590;53.366;5.212;2022-12-18T01:19:13;-1.30;99.90
55693;DHT22;41590;53.366;5.212;2022-12-18T01:21:44;-1.30;99.90
55693;DHT22;41590;53.366;5.212;2022-12-18T01:24:12;-1.50;99.90
55693;DHT22;41590;53.366;5.212;2022-12-18T01:26:48;-0.60;99.90
55693;DHT22;41590;53.366;5.212;2022-12-18T01:29:16;-0.30;99.90
55693;DHT22;41590;53.366;5.212;2022-12-18T01:31:43;-1.10;99.90
55693;DHT22;41590;53.366;5.212;2022-12-18T01:34:11;-0.50;99.90
55693;DHT22;41590;53.366;5.212;2022-12-18T01:36:38;-1.20;99.90
55693;DHT22;41590;53.366;5.212;2022-12-18T01:39:14;-1.20;99.90
55693;DHT22;41590;53.366;5.212;2022-12-18T01:41:42;-0.10;99.90
55693;DHT22;41590;53.366;5.212;2022-12-18T01:50:13;-1.30;99.90
55693;DHT22;41590;53.366;5.212;2022-12-18T01:52:43;-1.60;99.90
55693;DHT22;41590;53.366;5.212;2022-12-18T01:55:15;-1.10;99.90
55693;DHT22;41590;53.366;5.212;2022-12-18T01:57:42;-1.40;99.90
55693;DHT22;41590;53.366;5.212;2022-12-18T02:00:20;-1.60;99.90
55693;DHT22;41590;53.366;5.212;2022-12-18T02:02:56;-1.60;99.90
55693;DHT22;41590;53.366;5.212;2022-12-18T02:17:01;-1.40;99.90
55693;DHT22;41590;53.366;5.212;2022-12-18T02:19:43;-1.30;99.90
55693;DHT22;41590;53.366;5.212;2022-12-18T02:25:25;-1.40;99.90
55693;DHT22;41590;53.366;5.212;2022-12-18T02:27:58;-1.30;99.90
55693;DHT22;41590;53.366;5.212;2022-12-18T02:30:31;-1.30;99.90
55693;DHT22;41590;53.366;5.212;2022-12-18T02:33:00;-1.00;99.90
55693;DHT22;41590;53.366;5.212;2022-12-18T02:35:29;-1.50;99.90
55693;DHT22;41590;53.366;5.212;2022-12-18T02:37:58;-1.00;99.90
55693;DHT22;41590;53.366;5.212;2022-12-18T02:40:27;-1.20;99.90
55693;DHT22;41590;53.366;5.212;2022-12-18T02:43:15;-1.10;99.90
55693;DHT22;41590;53.366;5.212;2022-12-18T02:45:52;-0.20;99.90
55693;DHT22;41590;53.366;5.212;2022-12-18T02:48:26;0.10;99.90
55693;DHT22;41590;53.366;5.212;2022-12-18T02:53:53;-1.20;99.90
55693;DHT22;41590;53.366;5.212;2022-12-18T02:56:50;-0.40;99.90
55693;DHT22;41590;53.366;5.212;2022-12-18T02:59:28;-1.60;99.90
55693;DHT22;41590;53.366;5.212;2022-12-18T03:02:04;-1.50;99.90
55693;DHT22;41590;53.366;5.212;2022-12-18T03:04:55;-1.50;99.90
55693;DHT22;41590;53.366;5.212;2022-12-18T03:07:53;-1.60;99.90
55693;DHT22;41590;53.366;5.212;2022-12-18T03:10:28;-1.30;99.90
55693;DHT22;41590;53.366;5.212;2022-12-18T03:13:00;-1.30;99.90
55693;DHT22;41590;53.366;5.212;2022-12-18T03:15:48;-1.30;99.90
55693;DHT22;41590;53.366;5.212;2022-12-18T03:21:54;-1.30;99.90
55693;DHT22;41590;53.366;5.212;2022-12-18T03:24:24;-1.30;99.90
55693;DHT22;41590;53.366;5.212;2022-12-18T03:27:02;-0.40;99.90
55693;DHT22;41590;53.366;5.212;2022-12-18T03:33:07;-1.30;99.90
55693;DHT22;41590;53.366;5.212;2022-12-18T03:35:37;-1.70;99.90
55693;DHT22;41590;53.366;5.212;2022-12-18T03:38:11;-1.10;99.90
55693;DHT22;41590;53.366;5.212;2022-12-18T03:43:47;-1.40;99.90
55693;DHT22;41590;53.366;5.212;2022-12-18T03:46:30;-1.40;99.90
55693;DHT22;41590;53.366;5.212;2022-12-18T03:49:02;-1.40;99.90
55693;DHT22;41590;53.366;5.212;2022-12-18T03:52:04;-1.70;99.90
55693;DHT22;41590;53.366;5.212;2022-12-18T03:54:33;-1.70;99.90
55693;DHT22;41590;53.366;5.212;2022-12-18T03:57:13;-1.50;99.90
55693;DHT22;41590;53.366;5.212;2022-12-18T03:59:41;-1.70;99.90
55693;DHT22;41590;53.366;5.212;2022-12-18T04:02:08;-0.80;99.90
55693;DHT22;41590;53.366;5.212;2022-12-18T04:04:38;-1.10;99.90
55693;DHT22;41590;53.366;5.212;2022-12-18T04:07:04;-0.20;99.90
55693;DHT22;41590;53.366;5.212;2022-12-18T04:09:33;-0.30;99.90
55693;DHT22;41590;53.366;5.212;2022-12-18T04:12:11;-1.80;99.90
55693;DHT22;41590;53.366;5.212;2022-12-18T04:14:47;-1.70;99.90
55693;DHT22;41590;53.366;5.212;2022-12-18T04:17:30;-1.70;99.90
55693;DHT22;41590;53.366;5.212;2022-12-18T04:20:04;-1.40;99.90
55693;DHT22;41590;53.366;5.212;2022-12-18T04:22:31;-1.80;99.90
55693;DHT22;41590;53.366;5.212;2022-12-18T04:25:15;-1.90;99.90
55693;DHT22;41590;53.366;5.212;2022-12-18T04:27:40;-1.90;99.90
55693;DHT22;41590;53.366;5.212;2022-12-18T04:30:07;-2.00;99.90
55693;DHT22;41590;53.366;5.212;2022-12-18T04:32:34;-1.90;99.90
55693;DHT22;41590;53.366;5.212;2022-12-18T04:35:00;-1.90;99.90
55693;DHT22;41590;53.366;5.212;2022-12-18T04:37:39;-1.80;99.90
55693;DHT22;41590;53.366;5.212;2022-12-18T04:42:56;-1.80;99.90
55693;DHT22;41590;53.366;5.212;2022-12-18T04:45:25;-2.00;99.90
55693;DHT22;41590;53.366;5.212;2022-12-18T04:47:54;-0.70;99.90
55693;DHT22;41590;53.366;5.212;2022-12-18T04:50:30;-0.90;99.90
55693;DHT22;41590;53.366;5.212;2022-12-18T04:53:01;-1.70;99.90
55693;DHT22;41590;53.366;5.212;2022-12-18T04:55:27;-1.90;99.90
55693;DHT22;41590;53.366;5.212;2022-12-18T04:57:58;-0.80;99.90
55693;DHT22;41590;53.366;5.212;2022-12-18T05:00:26;-0.90;99.90
55693;DHT22;41590;53.366;5.212;2022-12-18T05:02:52;-1.80;99.90
55693;DHT22;41590;53.366;5.212;2022-12-18T05:05:19;-0.90;99.90
55693;DHT22;41590;53.366;5.212;2022-12-18T05:07:52;-1.10;99.90
55693;DHT22;41590;53.366;5.212;2022-12-18T05:10:20;-1.40;99.90
55693;DHT22;41590;53.366;5.212;2022-12-18T05:12:45;-1.80;99.90
55693;DHT22;41590;53.366;5.212;2022-12-18T05:15:29;-1.70;99.90
55693;DHT22;41590;53.366;5.212;2022-12-18T05:17:58;-1.30;99.90
55693;DHT22;41590;53.366;5.212;2022-12-18T05:20:26;-1.90;99.90
55693;DHT22;41590;53.366;5.212;2022-12-18T05:22:56;-1.60;99.90
55693;DHT22;41590;53.366;5.212;2022-12-18T05:25:23;-1.70;99.90
55693;DHT22;41590;53.366;5.212;2022-12-18T05:27:51;-1.50;99.90
55693;DHT22;41590;53.366;5.212;2022-12-18T05:30:23;-0.60;99.90
55693;DHT22;41590;53.366;5.212;2022-12-18T05:32:48;-0.70;99.90
55693;DHT22;41590;53.366;5.212;2022-12-18T05:35:14;-1.50;99.90
55693;DHT22;41590;53.366;5.212;2022-12-18T05:37:47;-1.70;99.90
55693;DHT22;41590;53.366;5.212;2022-12-18T05:40:13;-1.70;99.90
55693;DHT22;41590;53.366;5.212;2022-12-18T05:42:38;-1.70;99.90
55693;DHT22;41590;53.366;5.212;2022-12-18T05:45:06;-0.80;99.90
55693;DHT22;41590;53.366;5.212;2022-12-18T05:47:33;-1.60;99.90
55693;DHT22;41590;53.366;5.212;2022-12-18T05:50:07;-1.50;99.90
55693;DHT22;41590;53.366;5.212;2022-12-18T05:52:44;-1.90;99.90
55693;DHT22;41590;53.366;5.212;2022-12-18T05:55:10;-1.90;99.90
55693;DHT22;41590;53.366;5.212;2022-12-18T05:57:44;-0.90;99.90
55693;DHT22;41590;53.366;5.212;2022-12-18T06:00:11;-1.80;99.90
55693;DHT22;41590;53.366;5.212;2022-12-18T06:02:47;-1.60;99.90
55693;DHT22;41590;53.366;5.212;2022-12-18T06:05:14;-0.90;99.90
55693;DHT22;41590;53.366;5.212;2022-12-18T06:07:41;-1.90;99.90
55693;DHT22;41590;53.366;5.212;2022-12-18T06:10:07;-1.70;99.90
55693;DHT22;41590;53.366;5.212;2022-12-18T06:12:41;-1.90;99.90
55693;DHT22;41590;53.366;5.212;2022-12-18T06:15:17;-1.70;99.90
55693;DHT22;41590;53.366;5.212;2022-12-18T06:17:45;-1.90;99.90
55693;DHT22;41590;53.366;5.212;2022-12-18T06:20:10;-1.70;99.90
55693;DHT22;41590;53.366;5.212;2022-12-18T06:22:39;-1.60;99.90
55693;DHT22;41590;53.366;5.212;2022-12-18T06:25:05;-1.70;99.90
55693;DHT22;41590;53.366;5.212;2022-12-18T06:27:33;-1.70;99.90
55693;DHT22;41590;53.366;5.212;2022-12-18T06:30:04;-1.20;99.90
55693;DHT22;41590;53.366;5.212;2022-12-18T06:32:30;-1.60;99.90
55693;DHT22;41590;53.366;5.212;2022-12-18T06:34:55;-1.90;99.90
55693;DHT22;41590;53.366;5.212;2022-12-18T06:37:26;-0.30;99.90
55693;DHT22;41590;53.366;5.212;2022-12-18T06:39:53;-1.70;99.90
55693;DHT22;41590;53.366;5.212;2022-12-18T06:42:19;-1.40;99.90
55693;DHT22;41590;53.366;5.212;2022-12-18T06:45:03;-1.70;99.90
55693;DHT22;41590;53.366;5.212;2022-12-18T06:47:31;-1.70;99.90
55693;DHT22;41590;53.366;5.212;2022-12-18T06:50:01;-1.80;99.90
55693;DHT22;41590;53.366;5.212;2022-12-18T06:52:52;-1.50;99.90
55693;DHT22;41590;53.366;5.212;2022-12-18T06:55:34;-1.60;99.90
55693;DHT22;41590;53.366;5.212;2022-12-18T06:58:00;-1.70;99.90
55693;DHT22;41590;53.366;5.212;2022-12-18T07:00:27;-2.00;99.90
55693;DHT22;41590;53.366;5.212;2022-12-18T07:02:55;-1.80;99.90
55693;DHT22;41590;53.366;5.212;2022-12-18T07:05:24;-0.60;99.90
55693;DHT22;41590;53.366;5.212;2022-12-18T07:07:54;-1.80;99.90
55693;DHT22;41590;53.366;5.212;2022-12-18T07:10:24;-0.70;99.90
55693;DHT22;41590;53.366;5.212;2022-12-18T07:12:50;-2.00;99.90
55693;DHT22;41590;53.366;5.212;2022-12-18T07:15:16;-2.20;99.90
55693;DHT22;41590;53.366;5.212;2022-12-18T07:17:41;-2.10;99.90
55693;DHT22;41590;53.366;5.212;2022-12-18T07:20:08;-2.30;99.90
55693;DHT22;41590;53.366;5.212;2022-12-18T07:22:36;-1.90;99.90
55693;DHT22;41590;53.366;5.212;2022-12-18T07:25:01;-2.10;99.90
55693;DHT22;41590;53.366;5.212;2022-12-18T07:27:28;-1.30;99.90
55693;DHT22;41590;53.366;5.212;2022-12-18T07:30:02;-2.20;99.90
55693;DHT22;41590;53.366;5.212;2022-12-18T07:32:30;-2.40;99.90
55693;DHT22;41590;53.366;5.212;2022-12-18T07:34:58;-1.50;99.90
55693;DHT22;41590;53.366;5.212;2022-12-18T07:37:25;-1.70;99.90
55693;DHT22;41590;53.366;5.212;2022-12-18T07:39:52;-2.60;99.90
55693;DHT22;41590;53.366;5.212;2022-12-18T07:42:21;-2.50;99.90
55693;DHT22;41590;53.366;5.212;2022-12-18T07:45:03;-2.80;99.90
55693;DHT22;41590;53.366;5.212;2022-12-18T07:47:36;-2.80;99.90
55693;DHT22;41590;53.366;5.212;2022-12-18T07:50:05;-2.10;99.90
55693;DHT22;41590;53.366;5.212;2022-12-18T07:52:33;-2.70;99.90
55693;DHT22;41590;53.366;5.212;2022-12-18T07:55:23;-2.30;99.90
55693;DHT22;41590;53.366;5.212;2022-12-18T07:57:50;-2.30;99.90
55693;DHT22;41590;53.366;5.212;2022-12-18T08:00:17;-1.60;99.90
55693;DHT22;41590;53.366;5.212;2022-12-18T08:02:45;-2.30;99.90
55693;DHT22;41590;53.366;5.212;2022-12-18T08:05:12;-2.40;99.90
55693;DHT22;41590;53.366;5.212;2022-12-18T08:07:39;-2.70;99.90
55693;DHT22;41590;53.366;5.212;2022-12-18T08:10:06;-1.40;99.90
55693;DHT22;41590;53.366;5.212;2022-12-18T08:12:35;-2.50;99.90
55693;DHT22;41590;53.366;5.212;2022-12-18T08:15:02;-2.50;99.90
55693;DHT22;41590;53.366;5.212;2022-12-18T08:17:29;-2.80;99.90
55693;DHT22;41590;53.366;5.212;2022-12-18T08:19:57;-1.50;99.90
55693;DHT22;41590;53.366;5.212;2022-12-18T08:22:22;-2.90;99.90
55693;DHT22;41590;53.366;5.212;2022-12-18T08:24:48;-2.50;99.90
55693;DHT22;41590;53.366;5.212;2022-12-18T08:27:14;-1.80;99.90
55693;DHT22;41590;53.366;5.212;2022-12-18T08:29:40;-2.80;99.90
55693;DHT22;41590;53.366;5.212;2022-12-18T08:32:07;-2.90;99.90
55693;DHT22;41590;53.366;5.212;2022-12-18T08:34:36;-2.70;99.90
55693;DHT22;41590;53.366;5.212;2022-12-18T08:37:08;-2.90;99.90
55693;DHT22;41590;53.366;5.212;2022-12-18T08:39:34;-2.70;99.90
55693;DHT22;41590;53.366;5.212;2022-12-18T08:42:00;-3.00;99.90
55693;DHT22;41590;53.366;5.212;2022-12-18T08:44:46;-1.70;99.90
55693;DHT22;41590;53.366;5.212;2022-12-18T08:47:13;-2.70;99.90
55693;DHT22;41590;53.366;5.212;2022-12-18T08:49:39;-3.10;99.90
55693;DHT22;41590;53.366;5.212;2022-12-18T08:52:06;-2.80;99.90
55693;DHT22;41590;53.366;5.212;2022-12-18T08:54:32;-1.90;99.90
55693;DHT22;41590;53.366;5.212;2022-12-18T08:57:01;-2.90;99.90
55693;DHT22;41590;53.366;5.212;2022-12-18T08:59:28;-2.70;99.90
55693;DHT22;41590;53.366;5.212;2022-12-18T09:01:54;-1.50;99.90
55693;DHT22;41590;53.366;5.212;2022-12-18T09:04:21;-1.70;99.90
55693;DHT22;41590;53.366;5.212;2022-12-18T09:06:48;-2.80;99.90
55693;DHT22;41590;53.366;5.212;2022-12-18T09:09:14;-3.10;99.90
55693;DHT22;41590;53.366;5.212;2022-12-18T09:11:39;-2.70;99.90
55693;DHT22;41590;53.366;5.212;2022-12-18T09:14:05;-2.70;99.90
55693;DHT22;41590;53.366;5.212;2022-12-18T09:16:32;-2.70;99.90
55693;DHT22;41590;53.366;5.212;2022-12-18T09:19:01;-2.60;99.90
55693;DHT22;41590;53.366;5.212;2022-12-18T09:21:30;-2.60;99.90
55693;DHT22;41590;53.366;5.212;2022-12-18T09:23:57;-2.60;99.90
55693;DHT22;41590;53.366;5.212;2022-12-18T09:26:24;-2.00;99.90
55693;DHT22;41590;53.366;5.212;2022-12-18T09:28:55;-2.70;99.90
55693;DHT22;41590;53.366;5.212;2022-12-18T09:31:23;-2.80;99.90
55693;DHT22;41590;53.366;5.212;2022-12-18T09:33:55;-2.80;99.90
55693;DHT22;41590;53.366;5.212;2022-12-18T09:36:21;-2.70;99.90
55693;DHT22;41590;53.366;5.212;2022-12-18T09:38:51;-2.90;99.90
55693;DHT22;41590;53.366;5.212;2022-12-18T09:41:47;-2.70;99.90
55693;DHT22;41590;53.366;5.212;2022-12-18T09:44:23;-2.90;99.90
55693;DHT22;41590;53.366;5.212;2022-12-18T09:49:43;-2.90;99.90
55693;DHT22;41590;53.366;5.212;2022-12-18T09:52:21;-2.70;99.90
55693;DHT22;41590;53.366;5.212;2022-12-18T09:55:11;-2.90;99.90
55693;DHT22;41590;53.366;5.212;2022-12-18T09:58:00;-2.80;99.90
55693;DHT22;41590;53.366;5.212;2022-12-18T10:00:30;-2.60;99.90
55693;DHT22;41590;53.366;5.212;2022-12-18T10:03:13;-2.70;99.90
55693;DHT22;41590;53.366;5.212;2022-12-18T10:05:45;-2.80;99.90
55693;DHT22;41590;53.366;5.212;2022-12-18T10:08:39;-2.80;99.90
55693;DHT22;41590;53.366;5.212;2022-12-18T10:11:41;-2.70;99.90
55693;DHT22;41590;53.366;5.212;2022-12-18T10:14:28;-2.50;99.90
55693;DHT22;41590;53.366;5.212;2022-12-18T10:20:05;-2.40;99.90
55693;DHT22;41590;53.366;5.212;2022-12-18T10:25:29;-2.30;99.90
55693;DHT22;41590;53.366;5.212;2022-12-18T10:28:34;-2.30;99.90
55693;DHT22;41590;53.366;5.212;2022-12-18T10:31:14;-2.20;99.90
55693;DHT22;41590;53.366;5.212;2022-12-18T10:33:47;-2.10;99.90
55693;DHT22;41590;53.366;5.212;2022-12-18T10:36:13;-2.10;99.90
55693;DHT22;41590;53.366;5.212;2022-12-18T10:38:42;-1.70;99.90
55693;DHT22;41590;53.366;5.212;2022-12-18T10:44:29;-2.00;99.90
55693;DHT22;41590;53.366;5.212;2022-12-18T10:47:04;-2.00;99.90
55693;DHT22;41590;53.366;5.212;2022-12-18T10:49:59;-1.00;99.90
55693;DHT22;41590;53.366;5.212;2022-12-18T10:53:01;-2.50;99.90
55693;DHT22;41590;53.366;5.212;2022-12-18T10:55:39;-1.70;99.90
55693;DHT22;41590;53.366;5.212;2022-12-18T11:06:19;-1.50;99.90
55693;DHT22;41590;53.366;5.212;2022-12-18T11:09:21;-1.50;99.90
55693;DHT22;41590;53.366;5.212;2022-12-18T11:12:04;-1.50;99.90
55693;DHT22;41590;53.366;5.212;2022-12-18T11:14:52;-1.50;99.90
55693;DHT22;41590;53.366;5.212;2022-12-18T11:17:20;-1.50;99.90
55693;DHT22;41590;53.366;5.212;2022-12-18T11:20:01;-1.40;99.90
55693;DHT22;41590;53.366;5.212;2022-12-18T11:22:36;-1.50;99.90
55693;DHT22;41590;53.366;5.212;2022-12-18T11:25:18;-1.40;99.90
55693;DHT22;41590;53.366;5.212;2022-12-18T11:27:57;-1.40;99.90
55693;DHT22;41590;53.366;5.212;2022-12-18T11:30:32;-1.40;99.90
55693;DHT22;41590;53.366;5.212;2022-12-18T11:33:22;-1.40;99.90
55693;DHT22;41590;53.366;5.212;2022-12-18T11:35:53;-1.40;99.90
55693;DHT22;41590;53.366;5.212;2022-12-18T11:38:35;-1.40;99.90
55693;DHT22;41590;53.366;5.212;2022-12-18T11:41:22;-1.30;99.90
55693;DHT22;41590;53.366;5.212;2022-12-18T11:44:29;-1.40;99.90
55693;DHT22;41590;53.366;5.212;2022-12-18T11:53:17;-1.30;99.90
55693;DHT22;41590;53.366;5.212;2022-12-18T12:07:21;-1.30;99.90
55693;DHT22;41590;53.366;5.212;2022-12-18T13:28:13;-1.60;99.90
55693;DHT22;41590;53.366;5.212;2022-12-18T13:52:42;-1.60;99.90
55693;DHT22;41590;53.366;5.212;2022-12-18T14:02:30;-1.80;99.90
55693;DHT22;41590;53.366;5.212;2022-12-18T14:38:39;-1.10;99.90
55693;DHT22;41590;53.366;5.212;2022-12-18T14:41:16;0.10;99.90
55693;DHT22;41590;53.366;5.212;2022-12-18T14:43:46;-1.10;99.90
55693;DHT22;41590;53.366;5.212;2022-12-18T14:46:52;0.40;99.90
55693;DHT22;41590;53.366;5.212;2022-12-18T14:56:24;-1.10;99.90
55693;DHT22;41590;53.366;5.212;2022-12-18T14:59:27;-0.20;99.90
55693;DHT22;41590;53.366;5.212;2022-12-18T15:02:15;-1.10;99.90
55693;DHT22;41590;53.366;5.212;2022-12-18T15:04:45;-1.00;99.90
55693;DHT22;41590;53.366;5.212;2022-12-18T15:07:26;0.20;99.90
55693;DHT22;41590;53.366;5.212;2022-12-18T15:10:15;0.30;99.90
55693;DHT22;41590;53.366;5.212;2022-12-18T15:16:27;-1.00;99.90
55693;DHT22;41590;53.366;5.212;2022-12-18T15:22:50;-1.00;99.90
55693;DHT22;41590;53.366;5.212;2022-12-18T15:25:31;-0.60;99.90
55693;DHT22;41590;53.366;5.212;2022-12-18T15:28:03;-0.20;99.90
55693;DHT22;41590;53.366;5.212;2022-12-18T15:30:35;-1.00;99.90
55693;DHT22;41590;53.366;5.212;2022-12-18T15:33:24;0.10;99.90
55693;DHT22;41590;53.366;5.212;2022-12-18T15:39:35;-1.10;99.90
55693;DHT22;41590;53.366;5.212;2022-12-18T15:45:57;-1.00;99.90
55693;DHT22;41590;53.366;5.212;2022-12-18T15:48:36;-1.00;99.90
55693;DHT22;41590;53.366;5.212;2022-12-18T15:51:08;-1.00;99.90
55693;DHT22;41590;53.366;5.212;2022-12-18T15:53:54;-0.90;99.90
55693;DHT22;41590;53.366;5.212;2022-12-18T15:56:55;-0.90;99.90
55693;DHT22;41590;53.366;5.212;2022-12-18T15:59:54;-0.90;99.90
55693;DHT22;41590;53.366;5.212;2022-12-18T16:02:24;-0.90;99.90
55693;DHT22;41590;53.366;5.212;2022-12-18T16:05:05;-0.90;99.90
55693;DHT22;41590;53.366;5.212;2022-12-18T16:07:38;-0.80;99.90
55693;DHT22;41590;53.366;5.212;2022-12-18T16:10:10;-0.50;99.90
55693;DHT22;41590;53.366;5.212;2022-12-18T16:15:54;-0.80;99.90
55693;DHT22;41590;53.366;5.212;2022-12-18T16:18:21;-0.70;99.90
55693;DHT22;41590;53.366;5.212;2022-12-18T16:20:47;0.40;99.90
55693;DHT22;41590;53.366;5.212;2022-12-18T16:23:14;0.00;99.90
55693;DHT22;41590;53.366;5.212;2022-12-18T16:25:48;0.00;99.90
55693;DHT22;41590;53.366;5.212;2022-12-18T16:31:56;-0.60;99.90
55693;DHT22;41590;53.366;5.212;2022-12-18T16:34:26;0.20;99.90
55693;DHT22;41590;53.366;5.212;2022-12-18T16:37:04;-0.60;99.90
55693;DHT22;41590;53.366;5.212;2022-12-18T16:39:31;0.80;99.90
55693;DHT22;41590;53.366;5.212;2022-12-18T16:42:13;-0.60;99.90
55693;DHT22;41590;53.366;5.212;2022-12-18T16:44:43;-0.50;99.90
55693;DHT22;41590;53.366;5.212;2022-12-18T16:47:10;0.80;99.90
55693;DHT22;41590;53.366;5.212;2022-12-18T16:49:39;-0.50;99.90
55693;DHT22;41590;53.366;5.212;2022-12-18T16:52:16;-0.10;99.90
55693;DHT22;41590;53.366;5.212;2022-12-18T16:54:47;0.40;99.90
55693;DHT22;41590;53.366;5.212;2022-12-18T16:57:23;-0.50;99.90
55693;DHT22;41590;53.366;5.212;2022-12-18T17:00:03;0.50;99.90
55693;DHT22;41590;53.366;5.212;2022-12-18T17:02:53;-0.40;99.90
55693;DHT22;41590;53.366;5.212;2022-12-18T17:09:06;-0.40;99.90
55693;DHT22;41590;53.366;5.212;2022-12-18T17:11:52;-0.40;99.90
55693;DHT22;41590;53.366;5.212;2022-12-18T17:14:34;-0.50;99.90
55693;DHT22;41590;53.366;5.212;2022-12-18T17:17:00;0.40;99.90
55693;DHT22;41590;53.366;5.212;2022-12-18T17:19:45;0.70;99.90
55693;DHT22;41590;53.366;5.212;2022-12-18T17:22:10;-0.50;99.90
55693;DHT22;41590;53.366;5.212;2022-12-18T17:24:37;0.80;99.90
55693;DHT22;41590;53.366;5.212;2022-12-18T17:27:04;-0.40;99.90
55693;DHT22;41590;53.366;5.212;2022-12-18T17:29:46;-0.40;99.90
55693;DHT22;41590;53.366;5.212;2022-12-18T17:32:13;-0.30;99.90
55693;DHT22;41590;53.366;5.212;2022-12-18T17:34:45;0.90;99.90
55693;DHT22;41590;53.366;5.212;2022-12-18T17:37:14;0.50;99.90
55693;DHT22;41590;53.366;5.212;2022-12-18T17:39:40;0.80;99.90
55693;DHT22;41590;53.366;5.212;2022-12-18T17:42:07;-0.30;99.90
55693;DHT22;41590;53.366;5.212;2022-12-18T17:44:35;1.00;99.90
55693;DHT22;41590;53.366;5.212;2022-12-18T17:47:21;-0.30;99.90
55693;DHT22;41590;53.366;5.212;2022-12-18T17:50:04;-0.30;99.90
55693;DHT22;41590;53.366;5.212;2022-12-18T17:52:38;-0.30;99.90
55693;DHT22;41590;53.366;5.212;2022-12-18T17:55:13;0.70;99.90
55693;DHT22;41590;53.366;5.212;2022-12-18T17:57:39;-0.30;99.90
55693;DHT22;41590;53.366;5.212;2022-12-18T18:00:10;-0.30;99.90
55693;DHT22;41590;53.366;5.212;2022-12-18T18:02:56;-0.30;99.90
55693;DHT22;41590;53.366;5.212;2022-12-18T18:05:22;-0.20;99.90
55693;DHT22;41590;53.366;5.212;2022-12-18T18:07:51;0.40;99.90
55693;DHT22;41590;53.366;5.212;2022-12-18T18:10:19;1.10;99.90
55693;DHT22;41590;53.366;5.212;2022-12-18T18:12:53;-0.30;99.90
55693;DHT22;41590;53.366;5.212;2022-12-18T18:15:57;0.10;99.90
55693;DHT22;41590;53.366;5.212;2022-12-18T18:18:23;-0.20;99.90
55693;DHT22;41590;53.366;5.212;2022-12-18T18:20:57;-0.30;99.90
55693;DHT22;41590;53.366;5.212;2022-12-18T18:23:25;1.00;99.90
55693;DHT22;41590;53.366;5.212;2022-12-18T18:26:23;0.80;99.90
55693;DHT22;41590;53.366;5.212;2022-12-18T18:28:53;-0.20;99.90
55693;DHT22;41590;53.366;5.212;2022-12-18T18:31:21;1.00;99.90
55693;DHT22;41590;53.366;5.212;2022-12-18T18:34:00;0.80;99.90
55693;DHT22;41590;53.366;5.212;2022-12-18T18:36:27;0.40;99.90
55693;DHT22;41590;53.366;5.212;2022-12-18T18:38:53;0.10;99.90
55693;DHT22;41590;53.366;5.212;2022-12-18T18:41:19;1.00;99.90
55693;DHT22;41590;53.366;5.212;2022-12-18T18:44:10;0.60;99.90
55693;DHT22;41590;53.366;5.212;2022-12-18T18:46:36;-0.10;99.90
55693;DHT22;41590;53.366;5.212;2022-12-18T18:49:14;1.00;99.90
55693;DHT22;41590;53.366;5.212;2022-12-18T18:52:06;0.80;99.90
55693;DHT22;41590;53.366;5.212;2022-12-18T18:54:43;-0.10;99.90
55693;DHT22;41590;53.366;5.212;2022-12-18T18:57:10;1.50;99.90
55693;DHT22;41590;53.366;5.212;2022-12-18T18:59:39;0.00;99.90
55693;DHT22;41590;53.366;5.212;2022-12-18T19:02:16;-0.20;99.90
55693;DHT22;41590;53.366;5.212;2022-12-18T19:04:43;-0.10;99.90
55693;DHT22;41590;53.366;5.212;2022-12-18T19:07:09;0.50;99.90
55693;DHT22;41590;53.366;5.212;2022-12-18T19:10:12;0.80;99.90
55693;DHT22;41590;53.366;5.212;2022-12-18T19:13:02;0.10;99.90
55693;DHT22;41590;53.366;5.212;2022-12-18T19:15:47;0.10;99.90
55693;DHT22;41590;53.366;5.212;2022-12-18T19:18:43;0.20;99.90
55693;DHT22;41590;53.366;5.212;2022-12-18T19:27:32;0.20;99.90
55693;DHT22;41590;53.366;5.212;2022-12-18T19:30:03;0.20;99.90
55693;DHT22;41590;53.366;5.212;2022-12-18T19:32:29;0.20;99.90
55693;DHT22;41590;53.366;5.212;2022-12-18T19:34:57;0.30;99.90
55693;DHT22;41590;53.366;5.212;2022-12-18T19:37:35;1.40;99.90
55693;DHT22;41590;53.366;5.212;2022-12-18T19:40:01;0.50;99.90
55693;DHT22;41590;53.366;5.212;2022-12-18T19:42:43;0.30;99.90
55693;DHT22;41590;53.366;5.212;2022-12-18T19:45:23;0.50;99.90
55693;DHT22;41590;53.366;5.212;2022-12-18T19:48:08;0.30;99.90
55693;DHT22;41590;53.366;5.212;2022-12-18T19:50:41;1.40;99.90
55693;DHT22;41590;53.366;5.212;2022-12-18T19:53:10;1.20;99.90
55693;DHT22;41590;53.366;5.212;2022-12-18T19:55:49;1.70;99.90
55693;DHT22;41590;53.366;5.212;2022-12-18T19:58:17;1.10;99.90
55693;DHT22;41590;53.366;5.212;2022-12-18T20:00:56;1.70;99.90
55693;DHT22;41590;53.366;5.212;2022-12-18T20:03:53;0.30;99.90
55693;DHT22;41590;53.366;5.212;2022-12-18T20:09:29;0.40;99.90
55693;DHT22;41590;53.366;5.212;2022-12-18T20:12:00;0.40;99.90
55693;DHT22;41590;53.366;5.212;2022-12-18T20:14:25;0.80;99.90
55693;DHT22;41590;53.366;5.212;2022-12-18T20:16:51;0.40;99.90
55693;DHT22;41590;53.366;5.212;2022-12-18T20:19:25;1.40;99.90
55693;DHT22;41590;53.366;5.212;2022-12-18T20:21:59;0.50;99.90
55693;DHT22;41590;53.366;5.212;2022-12-18T20:24:35;0.50;99.90
55693;DHT22;41590;53.366;5.212;2022-12-18T20:27:09;0.50;99.90
55693;DHT22;41590;53.366;5.212;2022-12-18T20:29:39;1.60;99.90